createdAt,value
2018-11-23T00:01:49.365Z,-0.23
2018-11-23T00:04:19.317Z,-0.31
2018-11-23T00:06:52.535Z,-0.37
2018-11-23T00:09:24.550Z,-0.39
2018-11-23T00:11:56.303Z,-0.41
2018-11-23T00:14:26.256Z,-0.44
2018-11-23T00:16:56.463Z,-0.47
2018-11-23T00:19:26.316Z,-0.49
2018-11-23T00:21:56.156Z,-0.43
2018-11-23T00:24:25.968Z,-0.46
2018-11-23T00:26:55.863Z,-0.48
2018-11-23T00:29:25.687Z,-0.47
2018-11-23T00:31:55.777Z,-0.47
2018-11-23T00:34:25.591Z,-0.47
2018-11-23T00:36:55.485Z,-0.55
2018-11-23T00:39:25.375Z,-0.52
2018-11-23T00:41:55.499Z,-0.51
2018-11-23T00:44:25.366Z,-0.49
2018-11-23T00:46:55.271Z,-0.46
2018-11-23T00:49:25.087Z,-0.41
2018-11-23T00:51:55.047Z,-0.44
2018-11-23T00:54:24.994Z,-0.47
2018-11-23T00:56:56.818Z,-0.51
2018-11-23T00:59:26.716Z,-0.54
2018-11-23T01:02:01.785Z,-0.55
2018-11-23T01:04:32.046Z,-0.59
2018-11-23T01:07:02.168Z,-0.64
2018-11-23T01:09:32.298Z,-0.63
2018-11-23T01:12:02.362Z,-0.62
2018-11-23T01:14:32.301Z,-0.62
2018-11-23T01:17:02.167Z,-0.66
2018-11-23T01:19:32.073Z,-0.74
2018-11-23T01:22:01.968Z,-0.59
2018-11-23T01:24:32.089Z,-0.58
2018-11-23T01:27:01.932Z,-0.55
2018-11-23T01:29:31.845Z,-0.49
2018-11-23T01:32:01.737Z,-0.47
2018-11-23T01:34:31.649Z,-0.48
2018-11-23T01:37:02.370Z,-0.51
2018-11-23T01:39:32.495Z,-0.51
2018-11-23T01:42:02.318Z,-0.47
2018-11-23T01:44:36.209Z,-0.55
2018-11-23T01:47:06.264Z,-0.58
2018-11-23T01:49:36.101Z,-0.57
2018-11-23T01:52:06.031Z,-0.55
2018-11-23T01:54:36.193Z,-0.49
2018-11-23T01:57:06.443Z,-0.55
2018-11-23T01:59:36.282Z,-0.60
2018-11-23T02:02:06.686Z,-0.62
2018-11-23T02:04:36.675Z,-0.53
2018-11-23T02:07:06.543Z,-0.40
2018-11-23T02:09:36.698Z,-0.37
2018-11-23T02:12:07.871Z,-0.37
2018-11-23T02:14:37.751Z,-0.31
2018-11-23T02:17:07.808Z,-0.36
2018-11-23T02:19:37.925Z,-0.29
2018-11-23T02:22:07.847Z,-0.29
2018-11-23T02:24:38.128Z,-0.32
2018-11-23T02:27:07.950Z,-0.27
2018-11-23T02:29:37.732Z,-0.27
2018-11-23T02:32:07.529Z,-0.24
2018-11-23T02:34:37.342Z,-0.26
2018-11-23T02:37:07.180Z,-0.37
2018-11-23T02:39:37.331Z,-0.45
2018-11-23T02:42:07.573Z,-0.42
2018-11-23T02:44:37.498Z,-0.44
2018-11-23T02:47:07.572Z,-0.42
2018-11-23T02:49:37.692Z,-0.57
2018-11-23T02:52:07.576Z,-0.63
2018-11-23T02:54:37.731Z,-0.63
2018-11-23T02:57:07.544Z,-0.72
2018-11-23T02:59:37.333Z,-0.62
2018-11-23T03:02:07.068Z,-0.59
2018-11-23T03:04:38.206Z,-0.52
2018-11-23T03:07:08.001Z,-0.53
2018-11-23T03:09:37.756Z,-0.53
2018-11-23T03:12:07.508Z,-0.52
2018-11-23T03:14:38.579Z,-0.52
2018-11-23T03:17:08.374Z,-0.52
2018-11-23T03:19:38.199Z,-0.53
2018-11-23T03:22:08.114Z,-0.47
2018-11-23T03:24:37.914Z,-0.46
2018-11-23T03:27:07.924Z,-0.46
2018-11-23T03:29:38.076Z,-0.44
2018-11-23T03:32:07.940Z,-0.46
2018-11-23T03:34:37.747Z,-0.50
2018-11-23T03:37:07.716Z,-0.46
2018-11-23T03:39:37.817Z,-0.45
2018-11-23T03:42:07.769Z,-0.47
2018-11-23T03:44:37.638Z,-0.49
2018-11-23T03:47:07.570Z,-0.46
2018-11-23T03:49:37.681Z,-0.45
2018-11-23T03:52:08.110Z,-0.48
2018-11-23T03:54:38.082Z,-0.48
2018-11-23T03:57:07.951Z,-0.46
2018-11-23T03:59:37.864Z,-0.47
2018-11-23T04:02:07.788Z,-0.45
2018-11-23T04:04:39.953Z,-0.44
2018-11-23T04:07:09.739Z,-0.48
2018-11-23T04:09:41.831Z,-0.44
2018-11-23T04:12:11.723Z,-0.48
2018-11-23T04:14:41.620Z,-0.52
2018-11-23T04:17:11.525Z,-0.50
2018-11-23T04:19:41.784Z,-0.53
2018-11-23T04:22:11.670Z,-0.54
2018-11-23T04:24:41.518Z,-0.48
2018-11-23T04:27:11.394Z,-0.45
2018-11-23T04:29:41.308Z,-0.41
2018-11-23T04:32:11.231Z,-0.39
2018-11-23T04:34:49.965Z,-0.41
2018-11-23T04:37:19.848Z,-0.51
2018-11-23T04:39:49.668Z,-0.55
2018-11-23T04:42:19.795Z,-0.58
2018-11-23T04:44:49.667Z,-0.56
2018-11-23T04:47:19.418Z,-0.63
2018-11-23T04:49:49.561Z,-0.71
2018-11-23T04:52:19.446Z,-0.76
2018-11-23T04:54:49.651Z,-0.76
2018-11-23T04:57:19.582Z,-0.74
2018-11-23T04:59:49.399Z,-0.67
2018-11-23T05:02:19.339Z,-0.56
2018-11-23T05:04:49.397Z,-0.56
2018-11-23T05:07:20.276Z,-0.44
2018-11-23T05:09:50.305Z,-0.35
2018-11-23T05:12:24.572Z,-0.32
2018-11-23T05:14:54.441Z,-0.29
2018-11-23T05:17:24.664Z,-0.21
2018-11-23T05:19:54.494Z,-0.25
2018-11-23T05:22:24.328Z,-0.42
2018-11-23T05:24:54.190Z,-0.37
2018-11-23T05:27:24.349Z,-0.39
2018-11-23T05:29:54.255Z,-0.38
2018-11-23T05:32:24.043Z,-0.34
2018-11-23T05:34:53.958Z,-0.33
2018-11-23T05:37:24.101Z,-0.38
2018-11-23T05:39:54.019Z,-0.41
2018-11-23T05:42:24.193Z,-0.42
2018-11-23T05:44:54.085Z,-0.44
2018-11-23T05:47:24.350Z,-0.44
2018-11-23T05:49:54.167Z,-0.50
2018-11-23T05:52:24.174Z,-0.50
2018-11-23T05:54:53.974Z,-0.59
2018-11-23T05:57:25.286Z,-0.63
2018-11-23T05:59:55.168Z,-0.60
2018-11-23T06:02:25.044Z,-0.64
2018-11-23T06:04:54.910Z,-0.67
2018-11-23T06:07:25.006Z,-0.63
2018-11-23T06:09:55.019Z,-0.73
2018-11-23T06:12:25.115Z,-0.74
2018-11-23T06:14:54.937Z,-0.74
2018-11-23T06:17:24.925Z,-0.75
2018-11-23T06:19:54.817Z,-0.84
2018-11-23T06:22:24.937Z,-0.73
2018-11-23T06:24:54.733Z,-0.69
2018-11-23T06:27:24.512Z,-0.63
2018-11-23T06:29:54.697Z,-0.72
2018-11-23T06:32:35.515Z,-0.68
2018-11-23T06:35:05.559Z,-0.62
2018-11-23T06:37:35.440Z,-0.55
2018-11-23T06:40:05.778Z,-0.45
2018-11-23T06:42:41.975Z,-0.35
2018-11-23T06:48:01.548Z,-0.48
2018-11-23T06:50:31.390Z,-0.47
2018-11-23T06:53:01.556Z,-0.55
2018-11-23T06:55:31.485Z,-0.66
2018-11-23T06:58:03.922Z,-0.69
2018-11-23T07:00:33.728Z,-0.66
2018-11-23T07:03:03.564Z,-0.60
2018-11-23T07:05:34.029Z,-0.71
2018-11-23T07:08:04.151Z,-0.75
2018-11-23T07:10:34.625Z,-0.74
2018-11-23T07:13:04.744Z,-0.59
2018-11-23T07:15:34.647Z,-0.62
2018-11-23T07:18:07.439Z,-0.63
2018-11-23T07:20:37.324Z,-0.58
2018-11-23T07:23:07.284Z,-0.55
2018-11-23T07:25:37.380Z,-0.56
2018-11-23T07:28:07.612Z,-0.57
2018-11-23T07:30:37.495Z,-0.47
2018-11-23T07:33:07.546Z,-0.44
2018-11-23T07:35:38.429Z,-0.50
2018-11-23T07:38:09.548Z,-0.44
2018-11-23T07:40:51.019Z,-0.37
2018-11-23T07:43:20.823Z,-0.26
2018-11-23T07:45:51.581Z,-0.22
2018-11-23T07:48:21.460Z,-0.20
2018-11-23T07:50:51.370Z,-0.15
2018-11-23T07:53:21.211Z,-0.19
2018-11-23T07:55:51.178Z,-0.07
2018-11-23T07:58:21.041Z,-0.03
2018-11-23T08:00:51.227Z,-0.06
2018-11-23T08:03:21.627Z,0.07
2018-11-23T08:05:51.481Z,0.08
2018-11-23T08:08:21.290Z,0.19
2018-11-23T08:10:50.092Z,0.15
2018-11-23T08:13:19.896Z,0.16
2018-11-23T08:15:50.049Z,0.17
2018-11-23T08:18:19.841Z,0.22
2018-11-23T08:20:49.570Z,0.22
2018-11-23T08:23:19.355Z,0.31
2018-11-23T08:25:49.186Z,0.41
2018-11-23T08:28:18.946Z,0.46
2018-11-23T08:30:50.656Z,0.46
2018-11-23T08:33:20.557Z,0.51
2018-11-23T08:35:50.395Z,0.60
2018-11-23T08:38:20.183Z,0.70
2018-11-23T08:40:50.106Z,0.68
2018-11-23T08:43:26.882Z,0.82
2018-11-23T08:45:58.400Z,0.85
2018-11-23T08:48:28.541Z,0.86
2018-11-23T08:50:58.369Z,0.89
2018-11-23T08:53:32.860Z,0.93
2018-11-23T08:56:03.232Z,1.01
2018-11-23T08:58:33.460Z,1.12
2018-11-23T09:01:03.785Z,1.14
2018-11-23T09:03:33.559Z,1.20
2018-11-23T09:06:04.140Z,1.25
2018-11-23T09:08:34.156Z,1.52
2018-11-23T09:11:04.453Z,1.50
2018-11-23T09:13:34.337Z,1.49
2018-11-23T09:16:06.123Z,1.48
2018-11-23T09:18:36.037Z,1.46
2018-11-23T09:21:06.576Z,1.43
2018-11-23T09:23:36.710Z,1.47
2018-11-23T09:26:06.667Z,1.52
2018-11-23T09:28:36.608Z,1.51
2018-11-23T09:31:06.530Z,1.56
2018-11-23T09:33:36.585Z,1.70
2018-11-23T09:36:06.254Z,1.75
2018-11-23T09:38:36.335Z,1.77
2018-11-23T09:41:06.403Z,1.80
2018-11-23T09:43:36.241Z,1.83
2018-11-23T09:46:06.932Z,1.87
2018-11-23T09:48:36.807Z,1.92
2018-11-23T09:51:07.683Z,2.07
2018-11-23T09:53:37.868Z,2.14
2018-11-23T09:56:07.651Z,2.54
2018-11-23T09:58:43.458Z,2.66
2018-11-23T10:03:37.253Z,2.51
2018-11-23T10:06:09.484Z,2.47
2018-11-23T10:08:40.579Z,2.51
2018-11-23T10:11:10.417Z,2.53
2018-11-23T10:13:44.939Z,2.59
2018-11-23T10:16:16.096Z,2.65
2018-11-23T10:18:45.968Z,2.82
2018-11-23T10:21:16.089Z,2.84
2018-11-23T10:23:45.913Z,2.86
2018-11-23T10:26:15.868Z,2.94
2018-11-23T10:28:45.684Z,2.93
2018-11-23T10:31:15.489Z,3.02
2018-11-23T10:33:45.355Z,3.10
2018-11-23T10:36:15.392Z,3.12
2018-11-23T10:38:45.174Z,3.19
2018-11-23T10:41:15.036Z,3.24
2018-11-23T10:43:44.845Z,3.23
2018-11-23T10:46:14.984Z,3.35
2018-11-23T10:48:44.912Z,3.40
2018-11-23T10:51:15.475Z,3.49
2018-11-23T10:56:14.985Z,3.59
2018-11-23T10:58:44.777Z,3.61
2018-11-23T11:01:21.099Z,3.65
2018-11-23T11:03:56.049Z,3.88
2018-11-23T11:06:33.243Z,3.94
2018-11-23T11:09:03.238Z,3.92
2018-11-23T11:11:33.689Z,4.18
2018-11-23T11:14:03.539Z,4.38
2018-11-23T11:16:33.639Z,4.43
2018-11-23T11:19:03.471Z,4.56
2018-11-23T11:21:33.269Z,4.62
2018-11-23T11:24:03.181Z,4.73
2018-11-23T11:26:33.245Z,5.11
2018-11-23T11:29:03.131Z,5.12
2018-11-23T11:31:32.975Z,5.20
2018-11-23T11:34:02.837Z,5.03
2018-11-23T11:36:32.732Z,5.01
2018-11-23T11:39:03.452Z,4.99
2018-11-23T11:41:33.207Z,5.07
2018-11-23T11:44:03.336Z,5.08
2018-11-23T11:46:33.762Z,5.13
2018-11-23T11:49:04.179Z,5.43
2018-11-23T11:51:33.976Z,5.44
2018-11-23T11:54:03.919Z,5.35
2018-11-23T11:56:33.936Z,5.32
2018-11-23T11:59:05.290Z,5.40
2018-11-23T12:01:35.279Z,5.42
2018-11-23T12:04:05.501Z,5.52
2018-11-23T12:06:37.484Z,5.47
2018-11-23T12:09:10.233Z,5.51
2018-11-23T12:11:40.184Z,5.59
2018-11-23T12:14:10.050Z,5.62
2018-11-23T12:16:39.894Z,5.56
2018-11-23T12:19:09.927Z,5.52
2018-11-23T12:21:40.253Z,5.80
2018-11-23T12:24:10.230Z,5.94
2018-11-23T12:26:40.052Z,5.91
2018-11-23T12:29:09.966Z,5.99
2018-11-23T12:31:39.748Z,6.38
2018-11-23T12:34:09.589Z,6.52
2018-11-23T12:36:39.382Z,6.50
2018-11-23T12:39:09.741Z,6.53
2018-11-23T12:41:39.621Z,6.60
2018-11-23T12:44:09.430Z,6.65
2018-11-23T12:46:39.304Z,6.90
2018-11-23T12:49:11.458Z,7.04
2018-11-23T12:51:41.203Z,7.03
2018-11-23T12:54:10.967Z,6.99
2018-11-23T12:56:40.810Z,7.07
2018-11-23T12:59:10.964Z,7.11
2018-11-23T13:01:40.735Z,7.22
2018-11-23T13:04:10.507Z,7.31
2018-11-23T13:06:40.298Z,7.49
2018-11-23T13:09:10.370Z,7.50
2018-11-23T13:11:41.924Z,7.45
2018-11-23T13:14:11.735Z,7.48
2018-11-23T13:16:41.491Z,7.51
2018-11-23T13:19:11.559Z,7.56
2018-11-23T13:21:41.368Z,7.48
2018-11-23T13:24:11.190Z,7.55
2018-11-23T13:26:41.123Z,7.53
2018-11-23T13:29:16.318Z,7.65
2018-11-23T13:31:41.120Z,7.61
2018-11-23T13:34:10.982Z,7.71
2018-11-23T13:36:40.795Z,7.74
2018-11-23T13:39:10.618Z,7.79
2018-11-23T13:41:40.532Z,7.96
2018-11-23T13:44:10.652Z,7.88
2018-11-23T13:46:40.470Z,7.82
2018-11-23T13:49:10.280Z,7.77
2018-11-23T13:51:40.147Z,7.70
2018-11-23T13:54:10.260Z,7.79
2018-11-23T13:56:40.079Z,7.77
2018-11-23T13:59:10.000Z,7.76
2018-11-23T14:01:39.831Z,7.65
2018-11-23T14:04:09.968Z,7.68
2018-11-23T14:06:39.773Z,7.69
2018-11-23T14:09:11.127Z,7.66
2018-11-23T14:11:41.880Z,7.83
2018-11-23T14:14:12.337Z,7.73
2018-11-23T14:16:42.097Z,7.84
2018-11-23T14:19:12.145Z,7.77
2018-11-23T14:21:41.959Z,7.72
2018-11-23T14:24:11.888Z,7.58
2018-11-23T14:26:41.821Z,7.60
2018-11-23T14:29:11.729Z,7.47
2018-11-23T14:31:41.755Z,7.44
2018-11-23T14:34:11.919Z,7.24
2018-11-23T14:39:16.616Z,7.10
2018-11-23T14:41:46.736Z,6.99
2018-11-23T14:44:17.010Z,6.85
2018-11-23T14:46:46.824Z,6.76
2018-11-23T14:49:16.632Z,6.74
2018-11-23T14:51:46.542Z,6.61
2018-11-23T14:54:16.351Z,6.55
2018-11-23T14:56:46.412Z,6.46
2018-11-23T14:59:16.171Z,6.44
2018-11-23T15:01:52.013Z,6.44
2018-11-23T15:04:16.145Z,6.39
2018-11-23T15:06:45.949Z,6.33
2018-11-23T15:09:15.839Z,6.35
2018-11-23T15:11:45.614Z,6.31
2018-11-23T15:14:15.660Z,6.17
2018-11-23T15:16:46.378Z,6.46
2018-11-23T15:19:16.431Z,6.22
2018-11-23T15:21:46.300Z,6.00
2018-11-23T15:24:16.326Z,6.08
2018-11-23T15:26:46.547Z,5.96
2018-11-23T15:29:16.386Z,5.94
2018-11-23T15:31:47.083Z,5.87
2018-11-23T15:34:17.667Z,5.79
2018-11-23T15:36:47.530Z,5.74
2018-11-23T15:39:17.761Z,5.65
2018-11-23T15:41:48.143Z,5.49
2018-11-23T15:44:18.017Z,5.42
2018-11-23T15:46:47.881Z,5.36
2018-11-23T15:49:18.018Z,5.22
2018-11-23T15:51:47.950Z,5.17
2018-11-23T15:54:17.744Z,5.10
2018-11-23T15:56:47.555Z,5.08
2018-11-23T15:59:17.492Z,4.98
2018-11-23T16:01:47.366Z,5.09
2018-11-23T16:04:18.519Z,5.05
2018-11-23T16:06:49.129Z,5.04
2018-11-23T16:09:19.009Z,5.01
2018-11-23T16:11:48.821Z,4.94
2018-11-23T16:14:19.115Z,4.94
2018-11-23T16:16:48.913Z,4.92
2018-11-23T16:19:20.203Z,5.03
2018-11-23T16:21:49.965Z,4.96
2018-11-23T16:24:19.909Z,4.91
2018-11-23T16:26:49.693Z,4.87
2018-11-23T16:29:19.542Z,4.90
2018-11-23T16:31:49.443Z,4.78
2018-11-23T16:34:20.520Z,4.82
2018-11-23T16:36:50.274Z,4.71
2018-11-23T16:39:20.125Z,4.67
2018-11-23T16:41:50.564Z,4.61
2018-11-23T16:44:20.802Z,4.54
2018-11-23T16:46:50.571Z,4.57
2018-11-23T16:49:20.370Z,4.49
2018-11-23T16:51:50.645Z,4.42
2018-11-23T16:54:21.736Z,4.42
2018-11-23T16:56:51.591Z,4.44
2018-11-23T16:59:21.441Z,4.40
2018-11-23T17:01:51.276Z,4.39
2018-11-23T17:04:21.107Z,4.46
2018-11-23T17:06:51.001Z,4.42
2018-11-23T17:09:22.112Z,4.43
2018-11-23T17:11:51.913Z,4.53
2018-11-23T17:14:21.774Z,4.40
2018-11-23T17:17:06.308Z,4.35
2018-11-23T17:19:36.413Z,4.31
2018-11-23T17:22:09.437Z,4.32
2018-11-23T17:24:40.031Z,4.26
2018-11-23T17:27:09.933Z,4.27
2018-11-23T17:29:40.061Z,4.20
2018-11-23T17:32:10.292Z,4.25
2018-11-23T17:34:41.999Z,4.23
2018-11-23T17:37:13.333Z,4.17
2018-11-23T17:39:46.212Z,4.11
2018-11-23T17:42:28.271Z,4.08
2018-11-23T17:44:58.307Z,4.03
2018-11-23T17:47:30.018Z,4.04
2018-11-23T17:50:02.784Z,4.13
2018-11-23T17:52:32.848Z,4.10
2018-11-23T17:55:03.456Z,4.10
2018-11-23T17:57:38.909Z,4.12
2018-11-23T18:00:14.782Z,3.96
2018-11-23T18:02:45.236Z,3.90
2018-11-23T18:05:16.197Z,3.93
2018-11-23T18:07:46.947Z,3.94
2018-11-23T18:10:18.585Z,3.84
2018-11-23T18:12:49.480Z,3.80
2018-11-23T18:15:22.824Z,3.77
2018-11-23T18:17:53.404Z,3.80
2018-11-23T18:20:24.197Z,3.76
2018-11-23T18:22:55.061Z,3.73
2018-11-23T18:25:26.793Z,3.68
2018-11-23T18:28:00.993Z,3.68
2018-11-23T18:30:32.525Z,3.69
2018-11-23T18:33:06.747Z,3.67
2018-11-23T18:35:39.797Z,3.66
2018-11-23T18:38:09.845Z,3.68
2018-11-23T18:40:39.729Z,3.66
2018-11-23T18:43:41.233Z,3.65
2018-11-23T18:46:41.019Z,3.68
2018-11-23T18:49:11.053Z,3.70
2018-11-23T18:51:42.989Z,3.71
2018-11-23T18:54:12.913Z,3.78
2018-11-23T18:56:47.847Z,3.81
2018-11-23T18:59:18.153Z,3.81
2018-11-23T19:01:49.963Z,3.81
2018-11-23T19:04:20.103Z,3.81
2018-11-23T19:06:49.909Z,3.81
2018-11-23T19:09:20.160Z,3.79
2018-11-23T19:11:50.663Z,3.80
2018-11-23T19:14:20.475Z,3.79
2018-11-23T19:16:51.084Z,3.82
2018-11-23T19:19:20.946Z,3.76
2018-11-23T19:21:50.903Z,3.87
2018-11-23T19:24:20.732Z,3.83
2018-11-23T19:26:51.095Z,3.85
2018-11-23T19:29:21.102Z,3.84
2018-11-23T19:32:10.062Z,3.84
2018-11-23T19:34:40.504Z,3.84
2018-11-23T19:37:14.425Z,3.81
2018-11-23T19:39:45.053Z,3.82
2018-11-23T19:42:15.271Z,3.81
2018-11-23T19:44:45.340Z,3.77
2018-11-23T19:47:17.123Z,3.77
2018-11-23T19:49:47.090Z,3.71
2018-11-23T19:52:17.828Z,3.70
2018-11-23T19:54:48.076Z,3.75
2018-11-23T19:57:18.758Z,3.74
2018-11-23T19:59:48.915Z,3.72
2018-11-23T20:02:19.899Z,3.70
2018-11-23T20:04:49.087Z,3.71
2018-11-23T20:07:19.015Z,3.72
2018-11-23T20:09:48.944Z,3.74
2018-11-23T20:12:20.167Z,3.79
2018-11-23T20:14:50.271Z,3.74
2018-11-23T20:17:20.784Z,3.73
2018-11-23T20:19:51.461Z,3.80
2018-11-23T20:22:22.865Z,3.71
2018-11-23T20:24:53.239Z,3.79
2018-11-23T20:27:23.819Z,3.78
2018-11-23T20:29:54.096Z,3.78
2018-11-23T20:32:24.016Z,3.78
2018-11-23T20:34:54.150Z,3.78
2018-11-23T20:37:24.600Z,3.77
2018-11-23T20:39:54.688Z,3.80
2018-11-23T20:42:25.019Z,3.81
2018-11-23T20:44:54.872Z,3.80
2018-11-23T20:47:24.916Z,3.78
2018-11-23T20:49:54.886Z,3.80
2018-11-23T20:52:25.323Z,3.76
2018-11-23T20:54:57.497Z,3.72
2018-11-23T20:57:27.399Z,3.71
2018-11-23T20:59:57.341Z,3.68
2018-11-23T21:02:27.361Z,3.61
2018-11-23T21:04:57.686Z,3.56
2018-11-23T21:07:27.797Z,3.54
2018-11-23T21:09:57.628Z,3.51
2018-11-23T21:12:27.622Z,3.47
2018-11-23T21:14:57.522Z,3.47
2018-11-23T21:17:27.539Z,3.45
2018-11-23T21:19:57.456Z,3.43
2018-11-23T21:22:27.678Z,3.43
2018-11-23T21:24:57.896Z,3.44
2018-11-23T21:27:27.900Z,3.49
2018-11-23T21:29:57.821Z,3.49
2018-11-23T21:32:27.673Z,3.51
2018-11-23T21:34:57.463Z,3.52
2018-11-23T21:37:34.583Z,3.59
2018-11-23T21:40:05.540Z,3.56
2018-11-23T21:42:35.375Z,3.56
2018-11-23T21:48:13.470Z,3.61
2018-11-23T21:50:43.936Z,3.54
2018-11-23T21:53:14.078Z,3.54
2018-11-23T21:55:44.092Z,3.53
2018-11-23T21:58:34.689Z,3.57
2018-11-23T22:01:04.906Z,3.53
2018-11-23T22:03:35.823Z,3.57
2018-11-23T22:06:06.103Z,3.54
2018-11-23T22:08:35.909Z,3.53
2018-11-23T22:11:05.976Z,3.53
2018-11-23T22:13:35.793Z,3.49
2018-11-23T22:16:06.125Z,3.49
2018-11-23T22:18:37.180Z,3.52
2018-11-23T22:21:07.276Z,3.51
2018-11-23T22:23:37.095Z,3.65
2018-11-23T22:26:07.016Z,3.56
2018-11-23T22:28:36.961Z,3.57
2018-11-23T22:31:07.898Z,3.54
2018-11-23T22:33:37.929Z,3.53
2018-11-23T22:36:09.578Z,3.59
2018-11-23T22:38:39.388Z,3.60
2018-11-23T22:41:10.270Z,3.56
2018-11-23T22:43:40.068Z,3.54
2018-11-23T22:46:10.359Z,3.61
2018-11-23T22:48:41.560Z,3.62
2018-11-23T22:51:11.453Z,3.58
2018-11-23T22:53:41.473Z,3.54
2018-11-23T22:56:11.570Z,3.61
2018-11-23T22:58:41.530Z,3.58
2018-11-23T23:01:11.507Z,3.53
2018-11-23T23:03:41.622Z,3.55
2018-11-23T23:06:11.533Z,3.62
2018-11-23T23:08:41.440Z,3.58
2018-11-23T23:11:11.830Z,3.66
2018-11-23T23:13:41.965Z,3.69
2018-11-23T23:16:12.275Z,3.63
2018-11-23T23:18:42.294Z,3.58
2018-11-23T23:21:12.335Z,3.54
2018-11-23T23:23:42.184Z,3.59
2018-11-23T23:26:12.432Z,3.61
2018-11-23T23:28:42.237Z,3.63
2018-11-23T23:31:12.191Z,3.65
2018-11-23T23:33:42.056Z,3.60
2018-11-23T23:36:11.856Z,3.66
2018-11-23T23:38:41.712Z,3.72
2018-11-23T23:41:11.615Z,3.70
2018-11-23T23:43:41.579Z,3.77
2018-11-23T23:46:11.605Z,3.72
2018-11-23T23:48:42.725Z,3.85
2018-11-23T23:51:12.763Z,3.82
2018-11-23T23:53:42.617Z,3.86
2018-11-23T23:56:12.436Z,3.80
2018-11-23T23:58:42.351Z,3.76
